Time;durP1;ratioP1;P1;durP2;ratioP2;P2;SDS_P1;SDS_P2;PMS_P1;PMS_P2;Temp;Humidity;BMP_temperature;BMP_pressure;BME280_temperature;BME280_humidity;BME280_pressure;Samples;Min_cycle;Max_cycle;Signal;HPM_P1;HPM_P2
2022/02/01 00:00:14;;;;;;;7.25;3.70;;;;;;;-0.55;89.14;99184.02;1670522;86;21403;-79
2022/02/01 00:03:17;;;;;;;9.23;4.37;;;;;;;-0.58;89.04;99174.37;1669579;85;21235;-79
2022/02/01 00:06:38;;;;;;;8.20;4.00;;;;;;;-0.56;88.99;99187.69;1679338;84;21321;-80
2022/02/01 00:09:49;;;;;;;6.47;3.85;;;;;;;-0.56;88.96;99183.66;1698641;84;21369;-80
2022/02/01 00:12:59;;;;;;;9.80;4.08;;;;;;;-0.54;88.98;99176.30;1698384;84;21320;-79
2022/02/01 00:19:45;;;;;;;6.67;3.70;;;;;;;-0.45;88.82;99173.31;1699146;84;21199;-80
2022/02/01 00:41:59;;;;;;;7.40;2.90;;;;;;;-0.33;87.94;99173.56;1698740;84;21925;-80
2022/02/01 00:45:04;;;;;;;5.00;2.92;;;;;;;-0.34;87.80;99176.74;1697736;84;21362;-79
2022/02/01 00:48:10;;;;;;;5.08;2.67;;;;;;;-0.33;87.77;99179.81;1700215;83;21460;-80
2022/02/01 00:51:15;;;;;;;8.53;3.00;;;;;;;-0.33;87.53;99178.47;1719282;83;21201;-80
2022/02/01 00:54:20;;;;;;;5.58;2.77;;;;;;;-0.35;87.46;99175.55;1718341;83;21308;-80
2022/02/01 00:57:25;;;;;;;6.87;2.77;;;;;;;-0.38;87.49;99180.68;1719597;83;21325;-80
2022/02/01 01:00:31;;;;;;;6.28;2.87;;;;;;;-0.41;87.51;99179.63;1718409;83;21800;-79
2022/02/01 01:03:37;;;;;;;9.65;3.20;;;;;;;-0.45;87.65;99178.19;1718040;83;21337;-80
2022/02/01 01:06:43;;;;;;;5.62;2.52;;;;;;;-0.49;87.68;99191.52;1719476;83;21638;-80
2022/02/01 01:09:50;;;;;;;5.87;3.02;;;;;;;-0.53;87.85;99190.09;1693162;83;21202;-79
2022/02/01 01:13:07;;;;;;;7.20;3.15;;;;;;;-0.54;88.15;99201.82;1695167;84;21217;-79
2022/02/01 01:55:59;;;;;;;28.02;6.65;;;;;;;-0.55;90.13;99229.67;1691657;85;21169;-79
2022/02/01 01:59:05;;;;;;;14.50;6.15;;;;;;;-0.50;90.17;99226.09;1691790;85;21326;-80
2022/02/01 02:02:10;;;;;;;15.08;7.50;;;;;;;-0.49;90.15;99227.80;1690590;85;21330;-79
2022/02/01 02:05:16;;;;;;;23.35;7.47;;;;;;;-0.54;90.02;99230.03;1690508;85;21889;-80
2022/02/01 02:08:23;;;;;;;22.90;9.13;;;;;;;-0.60;90.14;99231.41;1685152;85;21326;-80
2022/02/01 02:14:35;;;;;;;19.73;9.05;;;;;;;-0.66;90.58;99229.27;1684727;85;21419;-80
2022/02/01 02:17:40;;;;;;;24.52;9.13;;;;;;;-0.69;90.71;99234.03;1685631;85;21337;-80
2022/02/01 02:20:56;;;;;;;25.37;10.00;;;;;;;-0.71;90.92;99234.14;1690574;85;21401;-80
2022/02/01 02:24:00;;;;;;;23.87;8.98;;;;;;;-0.73;91.07;99227.22;1691846;85;21962;-79
2022/02/01 02:27:06;;;;;;;16.77;8.63;;;;;;;-0.75;91.31;99234.54;1691642;85;21303;-79
2022/02/01 02:30:13;;;;;;;17.65;8.70;;;;;;;-0.73;91.40;99233.94;1690871;85;21310;-79
2022/02/01 02:33:18;;;;;;;25.95;9.45;;;;;;;-0.77;91.39;99238.21;1689932;85;21362;-80
2022/02/01 02:36:23;;;;;;;21.80;9.23;;;;;;;-0.80;91.55;99241.18;1689469;85;21303;-80
2022/02/01 02:39:35;;;;;;;22.82;9.13;;;;;;;-0.77;91.66;99247.61;1689555;85;21338;-80
2022/02/01 02:46:01;;;;;;;14.85;7.12;;;;;;;-0.72;91.50;99255.77;1689389;85;21954;-80
2022/02/01 02:49:07;;;;;;;20.10;8.23;;;;;;;-0.73;91.29;99262.98;1690673;85;21346;-80
2022/02/01 02:52:13;;;;;;;14.78;7.00;;;;;;;-0.79;91.16;99270.22;1689225;84;21291;-80
2022/02/01 02:55:18;;;;;;;15.88;7.40;;;;;;;-0.84;91.29;99268.41;1689208;85;21854;-80
2022/02/01 02:58:23;;;;;;;20.92;7.20;;;;;;;-0.87;91.40;99273.54;1689016;85;21315;-80
2022/02/01 03:01:28;;;;;;;14.00;5.95;;;;;;;-0.90;91.56;99275.13;1662519;86;21592;-80
2022/02/01 03:04:37;;;;;;;18.80;7.00;;;;;;;-0.87;91.91;99274.03;1684230;85;21346;-80
2022/02/01 03:07:42;;;;;;;16.62;6.87;;;;;;;-0.86;91.88;99275.73;1691034;85;21937;-79
2022/02/01 03:10:48;;;;;;;15.50;7.25;;;;;;;-0.90;92.01;99269.76;1690687;85;21176;-80
2022/02/01 03:13:58;;;;;;;12.70;6.37;;;;;;;-0.89;92.24;99282.72;1689056;85;21385;-80
2022/02/01 03:20:26;;;;;;;16.73;7.15;;;;;;;-0.95;92.62;99285.41;1692524;85;21356;-80
2022/02/01 03:23:30;;;;;;;23.75;7.10;;;;;;;-1.00;93.00;99280.91;1690737;85;21337;-79
2022/02/01 03:26:36;;;;;;;17.95;7.75;;;;;;;-1.02;93.39;99282.88;1690348;85;21348;-80
2022/02/01 03:29:41;;;;;;;21.55;7.50;;;;;;;-1.01;93.72;99288.61;1705899;83;21649;-79
2022/02/01 03:32:45;;;;;;;18.77;7.15;;;;;;;-0.97;93.98;99298.61;1730453;83;21327;-80
2022/02/01 03:35:51;;;;;;;17.23;7.87;;;;;;;-0.95;94.11;99296.63;1722732;83;21942;-80
2022/02/01 03:38:58;;;;;;;15.65;6.85;;;;;;;-0.92;94.25;99309.32;1730995;83;21842;-80
2022/02/01 03:42:05;;;;;;;10.93;6.22;;;;;;;-0.90;94.31;99303.31;1723230;83;21181;-80
2022/02/01 03:45:10;;;;;;;17.25;7.95;;;;;;;-0.90;94.34;99304.66;1709547;83;21334;-80
2022/02/01 03:48:15;;;;;;;22.87;8.80;;;;;;;-0.92;94.37;99307.98;1698879;84;21397;-80
2022/02/01 03:51:21;;;;;;;19.23;8.40;;;;;;;-0.92;94.42;99314.69;1699863;83;21949;-79
2022/02/01 03:54:27;;;;;;;21.87;8.05;;;;;;;-1.00;94.49;99309.59;1719722;83;21305;-80
2022/02/01 03:57:32;;;;;;;19.02;8.88;;;;;;;-1.02;94.75;99312.41;1718009;83;21369;-79
2022/02/01 04:00:38;;;;;;;22.17;9.53;;;;;;;-1.03;94.84;99325.47;1719475;83;21307;-80
2022/02/01 04:03:43;;;;;;;22.37;10.08;;;;;;;-1.03;94.95;99328.16;1719250;83;21318;-79
2022/02/01 04:06:49;;;;;;;17.87;7.50;;;;;;;-1.01;95.02;99332.89;1718335;83;21378;-79
2022/02/01 04:09:55;;;;;;;19.70;7.40;;;;;;;-0.97;95.10;99326.80;1719365;83;21188;-79
2022/02/01 04:13:01;;;;;;;18.48;7.45;;;;;;;-0.93;95.18;99338.98;1719462;83;21315;-80
2022/02/01 04:16:07;;;;;;;14.33;7.45;;;;;;;-0.94;95.24;99330.09;1688782;85;21770;-80
2022/02/01 04:19:13;;;;;;;18.90;7.75;;;;;;;-0.92;95.38;99325.42;1689067;85;21216;-80
2022/02/01 04:22:18;;;;;;;17.37;8.33;;;;;;;-0.90;95.56;99336.88;1687980;84;21937;-79
2022/02/01 04:25:23;;;;;;;18.02;8.78;;;;;;;-0.90;95.81;99338.22;1688981;85;21296;-79
2022/02/01 04:28:29;;;;;;;21.57;9.15;;;;;;;-0.89;96.11;99343.98;1689009;85;21203;-79
2022/02/01 04:31:35;;;;;;;24.18;8.68;;;;;;;-0.87;96.43;99346.03;1690273;85;21785;-78
2022/02/01 04:34:43;;;;;;;23.67;9.08;;;;;;;-0.83;96.79;99347.48;1690516;85;21327;-79
2022/02/01 04:37:50;;;;;;;22.55;9.15;;;;;;;-0.80;97.09;99354.41;1688686;85;21394;-79
2022/02/01 04:40:56;;;;;;;22.58;9.15;;;;;;;-0.77;97.37;99356.36;1690364;85;21324;-79
2022/02/01 04:44:01;;;;;;;18.17;8.30;;;;;;;-0.75;97.68;99352.69;1695360;83;21342;-79
2022/02/01 04:47:06;;;;;;;16.70;7.47;;;;;;;-0.75;97.88;99356.72;1720635;83;21333;-79
2022/02/01 04:50:14;;;;;;;14.58;7.65;;;;;;;-0.74;98.08;99369.19;1719371;83;21325;-78
2022/02/01 04:53:20;;;;;;;16.62;8.03;;;;;;;-0.75;98.28;99371.48;1714339;83;21346;-79
2022/02/01 04:56:25;;;;;;;22.02;9.50;;;;;;;-0.75;98.44;99372.83;1710994;84;21331;-78
2022/02/01 04:59:29;;;;;;;16.02;8.88;;;;;;;-0.71;98.66;99367.57;1712363;84;21244;-78
2022/02/01 05:02:34;;;;;;;22.27;10.15;;;;;;;-0.64;98.87;99369.63;1711774;84;21248;-79
2022/02/01 05:05:41;;;;;;;20.43;8.43;;;;;;;-0.62;98.85;99373.03;1711628;84;21193;-78
2022/02/01 05:08:47;;;;;;;18.80;8.23;;;;;;;-0.56;98.97;99371.69;1676437;85;21297;-79
2022/02/01 05:11:54;;;;;;;18.15;8.40;;;;;;;-0.52;98.95;99380.70;1711931;84;21342;-79
2022/02/01 05:15:05;;;;;;;17.95;8.60;;;;;;;-0.44;99.13;99379.19;1679847;85;22602;-79
2022/02/01 05:18:14;;;;;;;16.97;8.68;;;;;;;-0.38;99.16;99383.55;1693953;84;21328;-79
2022/02/01 05:21:25;;;;;;;17.42;7.78;;;;;;;-0.38;99.07;99386.23;1695470;84;21844;-81
2022/02/01 05:24:34;;;;;;;17.90;8.20;;;;;;;-0.33;99.24;99390.76;1696466;84;21344;-80
2022/02/01 05:27:40;;;;;;;16.67;7.58;;;;;;;-0.25;99.29;99390.09;1695247;84;21274;-79
2022/02/01 05:30:45;;;;;;;13.85;7.08;;;;;;;-0.21;99.18;99388.00;1686479;84;21315;-79
2022/02/01 05:33:51;;;;;;;14.73;7.58;;;;;;;-0.13;99.29;99397.62;1685467;85;21280;-78
2022/02/01 05:36:57;;;;;;;13.35;6.87;;;;;;;-0.09;99.13;99393.69;1685138;85;21204;-79
2022/02/01 05:40:04;;;;;;;15.63;7.83;;;;;;;-0.05;99.04;99404.05;1685288;85;21848;-79
2022/02/01 05:43:16;;;;;;;14.78;7.47;;;;;;;-0.03;98.99;99402.56;1685509;85;21769;-79
2022/02/01 05:46:17;;;;;;;20.27;6.80;;;;;;;0.03;99.23;99405.22;1684956;85;21245;-79
2022/02/01 05:49:23;;;;;;;13.03;6.22;;;;;;;0.12;99.28;99412.00;1685527;85;21209;-79
2022/02/01 05:52:29;;;;;;;14.07;7.33;;;;;;;0.12;99.13;99405.27;1685229;85;21768;-79
2022/02/01 05:55:35;;;;;;;11.05;6.47;;;;;;;0.14;99.26;99410.05;1683206;84;21782;-79
2022/02/01 05:58:40;;;;;;;15.98;7.55;;;;;;;0.21;99.51;99418.43;1682445;85;21465;-82
2022/02/01 06:01:45;;;;;;;15.30;7.20;;;;;;;0.23;99.53;99429.39;1665257;86;21391;-82
2022/02/01 06:04:51;;;;;;;20.57;8.50;;;;;;;0.24;99.71;99427.09;1711757;84;21354;-82
2022/02/01 06:07:58;;;;;;;13.55;6.87;;;;;;;0.33;99.99;99428.61;1696138;84;21244;-81
2022/02/01 06:11:03;;;;;;;12.90;6.55;;;;;;;0.37;99.97;99430.90;1669253;84;22291;-81
2022/02/01 06:14:10;;;;;;;21.12;7.17;;;;;;;0.36;99.95;99431.89;1634290;87;21162;-81
2022/02/01 06:17:16;;;;;;;12.63;6.25;;;;;;;0.40;100.00;99431.98;1636878;87;21362;-80
2022/02/01 06:20:20;;;;;;;15.28;6.28;;;;;;;0.47;100.00;99439.02;1690704;84;22137;-81
2022/02/01 06:23:26;;;;;;;12.78;6.75;;;;;;;0.49;99.92;99441.11;1699461;84;21348;-80
2022/02/01 06:26:24;;;;;;;17.17;6.60;;;;;;;0.46;99.81;99434.63;1711383;84;21289;-80
2022/02/01 06:29:16;;;;;;;12.20;5.85;;;;;;;0.48;99.89;99440.75;1689956;84;21888;-80
2022/02/01 06:32:02;;;;;;;11.43;6.12;;;;;;;0.51;99.85;99447.19;1695651;84;21185;-81
2022/02/01 06:34:54;;;;;;;15.23;5.87;;;;;;;0.56;99.83;99451.68;1682154;85;21934;-80
2022/02/01 06:37:39;;;;;;;15.35;6.47;;;;;;;0.61;99.65;99448.12;1681078;84;21331;-80
2022/02/01 06:40:32;;;;;;;10.72;5.67;;;;;;;0.69;99.50;99442.05;1694824;84;22551;-80
2022/02/01 06:43:37;;;;;;;14.93;5.90;;;;;;;0.75;99.15;99442.38;1698651;84;21316;-80
2022/02/01 06:46:43;;;;;;;11.50;6.40;;;;;;;0.87;99.04;99432.85;1695270;84;21819;-80
2022/02/01 06:49:49;;;;;;;25.97;11.45;;;;;;;0.98;98.40;99433.59;1682221;84;22325;-81
2022/02/01 06:52:57;;;;;;;19.75;9.00;;;;;;;1.10;97.63;99438.39;1705104;84;21302;-81
2022/02/01 06:56:08;;;;;;;12.65;6.45;;;;;;;1.21;96.88;99424.80;1706413;84;21255;-80
2022/02/01 06:59:13;;;;;;;13.43;5.72;;;;;;;1.33;96.27;99420.66;1690451;83;21302;-81
2022/02/01 07:02:19;;;;;;;11.00;5.40;;;;;;;1.42;95.33;99421.17;1706908;84;21778;-81
2022/02/01 07:05:24;;;;;;;12.07;4.87;;;;;;;1.52;94.66;99419.33;1660192;86;21313;-81
2022/02/01 07:08:29;;;;;;;11.40;5.33;;;;;;;1.63;94.01;99429.97;1660549;86;21346;-81
2022/02/01 07:11:38;;;;;;;11.97;5.08;;;;;;;1.74;93.29;99429.85;1674979;84;21304;-81
2022/02/01 07:14:43;;;;;;;12.23;4.92;;;;;;;1.82;92.68;99433.16;1703033;84;21188;-81
2022/02/01 07:17:55;;;;;;;11.18;5.12;;;;;;;1.85;92.00;99437.44;1709572;84;21901;-81
2022/02/01 07:21:02;;;;;;;10.45;4.47;;;;;;;1.87;91.67;99443.53;1711734;82;21314;-81
2022/02/01 07:24:14;;;;;;;12.35;4.75;;;;;;;1.97;91.44;99448.42;1663149;84;21357;-81
2022/02/01 07:27:32;;;;;;;10.72;5.00;;;;;;;2.06;91.06;99452.96;1683964;84;21213;-79
2022/02/01 07:30:27;;;;;;;9.38;4.72;;;;;;;2.17;90.69;99453.33;1686808;84;21656;-79
2022/02/01 07:33:30;;;;;;;8.20;4.55;;;;;;;2.28;90.37;99455.36;1683640;85;21337;-79
2022/02/01 07:36:37;;;;;;;7.92;4.12;;;;;;;2.44;90.20;99461.50;1681291;85;21251;-80
2022/02/01 07:39:43;;;;;;;10.25;5.05;;;;;;;2.61;89.46;99463.96;1673684;85;21342;-78
2022/02/01 07:42:49;;;;;;;14.75;6.40;;;;;;;2.66;88.65;99472.47;1682613;84;21341;-78
2022/02/01 07:45:53;;;;;;;16.15;5.47;;;;;;;2.73;88.25;99474.08;1684172;83;21536;-80
2022/02/01 07:48:59;;;;;;;9.83;4.47;;;;;;;2.80;87.66;99476.05;1655540;85;21868;-80
2022/02/01 07:52:04;;;;;;;8.20;4.15;;;;;;;2.83;87.20;99476.27;1706928;84;21187;-80
2022/02/01 07:55:10;;;;;;;9.25;4.25;;;;;;;2.87;87.15;99474.11;1694995;83;21350;-80
2022/02/01 07:58:14;;;;;;;14.07;5.03;;;;;;;2.92;86.77;99485.34;1688751;83;21276;-80
2022/02/01 08:01:20;;;;;;;9.00;3.83;;;;;;;2.92;86.64;99496.16;1687868;83;21844;-79
2022/02/01 08:04:32;;;;;;;10.88;4.55;;;;;;;2.93;86.48;99500.55;1693340;83;21710;-80
2022/02/01 08:07:33;;;;;;;8.68;4.53;;;;;;;2.88;86.39;99504.20;1696561;83;21190;-80
2022/02/01 08:10:46;;;;;;;10.08;4.62;;;;;;;2.86;86.57;99502.12;1696901;83;21302;-80
2022/02/01 08:14:38;;;;;;;12.13;4.83;;;;;;;2.93;86.91;99512.70;1698334;83;21302;-80
2022/02/01 08:17:05;;;;;;;9.10;4.55;;;;;;;3.07;86.79;99514.94;1695620;83;21270;-80
2022/02/01 08:20:09;;;;;;;10.05;4.30;;;;;;;3.15;86.21;99519.08;1692832;83;21357;-80
2022/02/01 08:23:12;;;;;;;8.63;4.20;;;;;;;3.18;86.02;99524.70;1694863;83;21301;-80
2022/02/01 08:26:18;;;;;;;8.40;4.60;;;;;;;3.21;85.83;99525.26;1697512;83;21294;-80
2022/02/01 08:29:25;;;;;;;9.53;4.67;;;;;;;3.19;85.74;99529.95;1696283;83;21369;-80
2022/02/01 08:32:31;;;;;;;12.95;5.58;;;;;;;3.23;85.90;99529.16;1695147;83;21341;-81
2022/02/01 08:35:38;;;;;;;14.80;5.25;;;;;;;3.26;85.49;99549.14;1696193;83;21318;-81
2022/02/01 08:38:45;;;;;;;12.30;5.80;;;;;;;3.25;85.31;99549.64;1694887;84;21151;-81
2022/02/01 08:41:50;;;;;;;12.47;5.05;;;;;;;3.22;85.17;99544.52;1698467;83;21306;-81
2022/02/01 08:44:56;;;;;;;11.65;5.40;;;;;;;3.22;85.22;99537.77;1663586;84;21332;-80
2022/02/01 08:48:05;;;;;;;12.15;5.22;;;;;;;3.27;85.26;99537.32;1680570;84;21272;-79
2022/02/01 08:51:15;;;;;;;13.85;5.85;;;;;;;3.35;85.11;99542.00;1659937;86;21400;-81
2022/02/01 08:54:22;;;;;;;10.82;5.20;;;;;;;3.47;84.77;99551.60;1662205;86;21438;-80
2022/02/01 08:57:28;;;;;;;19.35;5.70;;;;;;;3.54;84.43;99538.70;1656869;85;21358;-80
2022/02/01 09:00:34;;;;;;;14.03;5.45;;;;;;;3.63;84.04;99536.95;1705344;84;21310;-80
2022/02/01 09:03:42;;;;;;;15.28;5.87;;;;;;;3.69;83.75;99537.69;1662925;86;21333;-80
2022/02/01 09:06:50;;;;;;;16.50;6.55;;;;;;;3.71;83.27;99530.77;1696149;83;21323;-80
2022/02/01 09:09:56;;;;;;;14.25;5.97;;;;;;;3.75;82.98;99537.07;1711415;84;21877;-80
2022/02/01 09:13:02;;;;;;;15.32;5.87;;;;;;;3.82;82.71;99535.48;1699890;84;21474;-79
2022/02/01 09:16:08;;;;;;;20.62;6.50;;;;;;;3.89;82.10;99528.09;1703604;84;21318;-80
2022/02/01 09:19:13;;;;;;;11.97;5.17;;;;;;;3.91;81.48;99526.11;1707635;83;21262;-80
2022/02/01 09:22:19;;;;;;;12.53;5.58;;;;;;;3.96;80.77;99520.58;1709414;82;21589;-80
2022/02/01 09:25:24;;;;;;;11.68;5.05;;;;;;;3.92;80.14;99514.27;1710280;84;21256;-80
2022/02/01 09:28:30;;;;;;;10.88;4.25;;;;;;;3.90;79.32;99513.55;1705634;82;21853;-80
2022/02/01 09:31:36;;;;;;;12.95;4.55;;;;;;;3.84;78.18;99513.17;1703802;82;21615;-80
2022/02/01 09:34:42;;;;;;;9.98;4.40;;;;;;;3.79;78.22;99521.39;1708920;82;21318;-80
2022/02/01 09:37:50;;;;;;;8.00;4.08;;;;;;;3.78;78.35;99517.84;1708202;84;21187;-80
2022/02/01 09:40:58;;;;;;;10.35;3.98;;;;;;;3.87;78.72;99520.65;1656014;86;21944;-80
2022/02/01 09:44:02;;;;;;;11.78;3.90;;;;;;;3.97;78.82;99512.80;1706337;84;21358;-80
2022/02/01 09:47:10;;;;;;;10.30;3.92;;;;;;;4.08;78.65;99513.92;1660911;85;21339;-79
2022/02/01 09:50:17;;;;;;;12.33;4.78;;;;;;;4.12;78.07;99505.50;1681945;84;21324;-80
2022/02/01 09:53:22;;;;;;;14.20;4.58;;;;;;;4.12;78.17;99503.64;1681189;84;21631;-80
2022/02/01 09:56:27;;;;;;;14.10;5.40;;;;;;;4.24;78.32;99499.70;1702348;83;21335;-80
2022/02/01 09:59:35;;;;;;;10.48;4.65;;;;;;;4.28;78.09;99495.69;1681376;84;21931;-80
2022/02/01 10:02:49;;;;;;;10.75;5.67;;;;;;;4.29;78.07;99486.55;1659765;84;21194;-80
2022/02/01 10:06:19;;;;;;;15.45;5.40;;;;;;;4.18;78.12;99486.77;1668113;84;21343;-80
2022/02/01 10:09:26;;;;;;;15.23;5.08;;;;;;;3.97;79.06;99484.89;1635811;86;21382;-80
2022/02/01 10:12:35;;;;;;;14.25;6.20;;;;;;;3.90;79.59;99483.29;1656610;84;21222;-80
2022/02/01 10:15:44;;;;;;;12.60;5.70;;;;;;;3.85;79.88;99474.28;1656970;85;21580;-80
2022/02/01 10:18:43;;;;;;;10.53;4.87;;;;;;;3.79;80.47;99475.41;1665702;84;21416;-80
2022/02/01 10:22:07;;;;;;;10.23;5.53;;;;;;;3.73;81.20;99474.68;1634630;86;22279;-80
2022/02/01 10:25:15;;;;;;;8.40;4.60;;;;;;;3.72;81.96;99464.37;1635527;86;21301;-80
2022/02/01 10:28:20;;;;;;;14.80;6.08;;;;;;;3.76;82.40;99470.30;1611398;87;21353;-80
2022/02/01 10:31:48;;;;;;;11.15;5.47;;;;;;;3.79;82.53;99468.14;1814848;76;22312;-77
2022/02/01 10:34:49;;;;;;;9.75;4.65;;;;;;;3.76;82.67;99468.94;1775427;80;21368;-76
2022/02/01 10:38:17;;;;;;;10.60;4.87;;;;;;;3.73;82.87;99462.00;1778358;80;21161;-88
2022/02/01 10:41:22;;;;;;;14.68;6.12;;;;;;;3.72;83.02;99464.88;1779798;80;21163;-89
2022/02/01 10:44:28;;;;;;;10.25;4.75;;;;;;;3.67;83.33;99462.63;1773740;80;21773;-77
2022/02/01 10:47:47;;;;;;;8.03;4.67;;;;;;;3.71;83.70;99451.82;1771848;80;21564;-88
2022/02/01 10:50:52;;;;;;;19.10;6.45;;;;;;;3.83;83.84;99453.81;1779574;79;21184;-77
2022/02/01 10:53:58;;;;;;;13.25;6.28;;;;;;;3.90;83.79;99447.27;1774260;80;21262;-77
2022/02/01 10:57:04;;;;;;;10.80;6.00;;;;;;;3.97;83.68;99442.45;1775793;80;21274;-77
2022/02/01 11:00:13;;;;;;;9.00;5.22;;;;;;;4.01;83.48;99452.47;1776988;80;21160;-77
2022/02/01 11:03:19;;;;;;;12.28;5.78;;;;;;;4.04;83.30;99449.43;1776571;80;21879;-77
2022/02/01 11:06:25;;;;;;;8.85;5.65;;;;;;;4.01;83.30;99453.31;1775740;80;21584;-88
2022/02/01 11:09:33;;;;;;;8.65;5.12;;;;;;;4.05;83.42;99456.57;1775743;80;21168;-77
2022/02/01 11:12:42;;;;;;;8.00;5.25;;;;;;;4.08;83.45;99452.18;1781405;80;21828;-88
2022/02/01 11:15:48;;;;;;;12.98;5.33;;;;;;;4.15;83.42;99457.84;1779005;80;21152;-77
2022/02/01 11:19:12;;;;;;;8.00;4.53;;;;;;;4.20;83.45;99461.77;1776032;80;21263;-88
2022/02/01 11:22:39;;;;;;;9.85;5.25;;;;;;;4.24;83.46;99463.67;1776304;80;21294;-90
2022/02/01 11:25:57;;;;;;;10.30;4.62;;;;;;;4.38;83.52;99462.27;1774562;80;21279;-87
2022/02/01 11:29:27;;;;;;;14.00;5.60;;;;;;;4.56;83.28;99462.56;1777233;80;21261;-76
2022/02/01 11:32:25;;;;;;;11.68;4.67;;;;;;;4.71;82.35;99467.41;1762987;79;21302;-87
2022/02/01 11:35:32;;;;;;;10.10;4.65;;;;;;;4.76;81.65;99463.20;1757622;80;21745;-88
2022/02/01 11:38:39;;;;;;;13.13;4.70;;;;;;;4.76;81.07;99462.36;1765914;80;21263;-77
2022/02/01 11:41:52;;;;;;;11.55;4.85;;;;;;;4.69;80.58;99464.83;1770062;80;21772;-88
2022/02/01 11:45:13;;;;;;;9.33;4.53;;;;;;;4.52;80.23;99453.56;1762617;80;21280;-77
2022/02/01 11:48:32;;;;;;;11.00;4.80;;;;;;;4.35;80.70;99458.84;1760127;80;21224;-88
2022/02/01 11:51:37;;;;;;;10.03;5.03;;;;;;;4.25;80.87;99449.97;1760903;80;21333;-77
2022/02/01 11:54:42;;;;;;;7.25;4.75;;;;;;;4.13;81.05;99440.38;1767544;80;21848;-77
2022/02/01 11:57:51;;;;;;;12.78;5.28;;;;;;;4.02;81.62;99452.30;1764391;80;21211;-77
2022/02/01 12:00:56;;;;;;;10.82;6.08;;;;;;;3.92;82.00;99452.89;1764366;80;21818;-77
2022/02/01 12:04:17;;;;;;;10.85;5.80;;;;;;;3.87;82.48;99450.30;1765535;80;21301;-87
2022/02/01 12:07:25;;;;;;;10.28;5.55;;;;;;;3.80;82.61;99446.84;1762424;80;21522;-77
2022/02/01 12:10:28;;;;;;;15.58;6.42;;;;;;;3.73;82.87;99451.19;1763099;80;21278;-77
2022/02/01 12:13:35;;;;;;;9.43;5.47;;;;;;;3.69;83.12;99452.48;1754289;80;21694;-88
2022/02/01 12:16:41;;;;;;;15.58;6.35;;;;;;;3.65;83.41;99452.44;1769890;80;21809;-88
2022/02/01 12:19:53;;;;;;;11.95;5.72;;;;;;;3.62;83.74;99451.89;1768610;80;21321;-89
2022/02/01 12:23:21;;;;;;;9.20;5.35;;;;;;;3.59;83.98;99458.47;1757611;80;21275;-77
2022/02/01 12:26:37;;;;;;;8.70;4.90;;;;;;;3.51;84.09;99459.22;1766499;80;21306;-77
2022/02/01 12:29:42;;;;;;;13.53;6.37;;;;;;;3.48;84.38;99462.25;1763636;80;21841;-88
2022/02/01 12:33:01;;;;;;;8.70;5.42;;;;;;;3.38;84.41;99457.38;1767220;80;21266;-77
2022/02/01 12:36:08;;;;;;;10.70;6.22;;;;;;;3.24;84.65;99468.19;1757429;80;21220;-89
2022/02/01 12:39:31;;;;;;;11.75;6.67;;;;;;;3.13;85.24;99469.74;1762134;80;21132;-79
2022/02/01 12:42:38;;;;;;;9.95;5.78;;;;;;;3.05;85.72;99470.98;1765519;80;21733;-89
2022/02/01 12:48:58;;;;;;;9.03;5.47;;;;;;;2.92;86.60;99475.89;1767261;80;21212;-88
2022/02/01 12:52:04;;;;;;;10.00;6.20;;;;;;;2.92;86.91;99474.55;1761383;80;21168;-88
2022/02/01 12:55:13;;;;;;;9.58;5.08;;;;;;;2.94;87.07;99477.94;1762711;80;21142;-88
2022/02/01 12:58:22;;;;;;;11.00;5.87;;;;;;;3.02;87.18;99476.70;1763167;80;21150;-88
2022/02/01 13:01:38;;;;;;;8.48;4.83;;;;;;;3.07;86.57;99475.75;1760627;80;21196;-88
2022/02/01 13:04:44;;;;;;;10.00;4.90;;;;;;;3.08;86.32;99481.50;1761281;80;21283;-87
2022/02/01 13:08:10;;;;;;;12.28;5.72;;;;;;;3.08;86.19;99480.15;1768909;80;21196;-87
2022/02/01 13:20:43;;;;;;;12.40;6.80;;;;;;;2.95;87.00;99472.38;1767300;80;21295;-78
2022/02/01 13:23:51;;;;;;;15.50;6.35;;;;;;;2.94;87.05;99469.33;1749672;80;21178;-88
2022/02/01 13:26:57;;;;;;;15.90;7.93;;;;;;;2.96;87.20;99474.57;1771245;80;21878;-76
2022/02/01 13:30:07;;;;;;;15.53;7.90;;;;;;;2.95;87.04;99475.58;1770414;80;21156;-77
2022/02/01 13:33:13;;;;;;;;;;;;;;;2.88;87.06;99466.38;1774989;80;21912;-77
2022/02/01 13:36:19;;;;;;;14.23;7.25;;;;;;;2.83;87.32;99473.58;1769054;80;20251;-76
2022/02/01 13:39:44;;;;;;;21.77;8.43;;;;;;;2.81;87.64;99476.40;1772979;80;21132;-89
2022/02/01 13:42:48;;;;;;;25.65;11.53;;;;;;;2.85;87.73;99468.86;1769014;80;21279;-89
2022/02/01 13:45:54;;;;;;;41.80;21.60;;;;;;;2.86;87.51;99471.91;1771937;80;21333;-77
2022/02/01 13:49:12;;;;;;;39.95;18.17;;;;;;;2.79;87.32;99474.36;1772454;80;21271;-76
2022/02/01 13:52:19;;;;;;;29.95;14.65;;;;;;;2.69;87.53;99478.09;1768425;80;21343;-77
2022/02/01 13:55:27;;;;;;;22.70;11.88;;;;;;;2.64;87.85;99473.13;1771932;80;21254;-76
2022/02/01 13:58:32;;;;;;;25.40;11.90;;;;;;;2.61;88.10;99477.46;1752616;80;21113;-78
2022/02/01 14:01:37;;;;;;;25.88;11.05;;;;;;;2.51;88.28;99485.58;1760858;81;21378;-77
2022/02/01 14:05:07;;;;;;;32.23;17.40;;;;;;;2.43;88.58;99494.05;1763524;81;21800;-88
2022/02/01 14:27:49;;;;;;;28.65;14.87;;;;;;;2.08;89.52;99518.44;1783339;80;21594;-76
2022/02/01 14:34:22;;;;;;;83.10;41.00;;;;;;;2.01;89.78;99505.98;1747073;81;21300;-76
2022/02/01 14:44:31;;;;;;;59.85;30.72;;;;;;;1.88;90.69;99496.47;1768167;81;21291;-88
2022/02/01 14:47:26;;;;;;;42.70;20.85;;;;;;;1.84;90.97;99501.31;1767827;81;21354;-76
2022/02/01 14:50:31;;;;;;;44.20;23.75;;;;;;;1.77;90.84;99505.55;1769685;81;21295;-75
2022/02/01 14:53:36;;;;;;;40.80;21.65;;;;;;;1.68;90.72;99508.58;1769906;81;21205;-87
2022/02/01 14:56:43;;;;;;;39.83;21.25;;;;;;;1.61;90.91;99503.90;1769456;81;21343;-76
2022/02/01 15:13:07;;;;;;;54.60;28.25;;;;;;;1.34;92.48;99517.51;1743306;81;21323;-76
2022/02/01 15:16:13;;;;;;;50.00;25.68;;;;;;;1.30;92.75;99521.45;1739649;82;21216;-76
2022/02/01 15:19:18;;;;;;;46.60;25.02;;;;;;;1.32;93.22;99538.83;1739889;82;21658;-75
2022/02/01 15:22:23;;;;;;;48.98;23.83;;;;;;;1.31;93.19;99541.17;1738749;82;21745;-75
2022/02/01 15:25:28;;;;;;;35.63;20.15;;;;;;;1.26;92.81;99546.47;1739274;82;21286;-77
2022/02/01 15:28:34;;;;;;;45.83;24.57;;;;;;;1.22;92.73;99545.06;1739815;82;21288;-89
2022/02/01 15:31:41;;;;;;;116.25;43.80;;;;;;;1.21;92.99;99542.48;1737925;82;21216;-89
2022/02/01 15:34:48;;;;;;;58.90;26.07;;;;;;;1.14;92.95;99542.18;1739254;81;21348;-76
2022/02/01 15:37:55;;;;;;;51.50;24.82;;;;;;;1.06;93.07;99543.84;1743827;82;21291;-87
2022/02/01 15:54:41;;;;;;;40.60;20.08;;;;;;;0.78;94.86;99550.77;1753510;82;21308;-77
2022/02/01 15:57:39;;;;;;;44.18;25.72;;;;;;;0.75;94.86;99549.18;1746657;81;21308;-88
2022/02/01 16:00:39;;;;;;;43.85;23.45;;;;;;;0.63;95.11;99546.22;1745729;81;21351;-86
2022/02/01 16:03:47;;;;;;;36.23;22.45;;;;;;;0.52;95.69;99549.84;1746130;82;21229;-87
2022/02/01 16:06:59;;;;;;;43.95;24.27;;;;;;;0.48;96.32;99559.15;1729623;82;21370;-88
2022/02/01 16:10:11;;;;;;;39.53;23.22;;;;;;;0.51;96.91;99556.17;1746082;82;21268;-88
2022/02/01 16:13:22;;;;;;;39.23;19.35;;;;;;;0.57;97.37;99554.83;1743812;82;21366;-76
2022/02/01 16:16:21;;;;;;;30.97;19.00;;;;;;;0.62;97.36;99562.02;1744932;82;21829;-76
2022/02/01 16:19:27;;;;;;;33.67;20.25;;;;;;;0.64;97.29;99559.53;1745865;82;21276;-76
2022/02/01 16:22:33;;;;;;;45.50;22.27;;;;;;;0.70;97.49;99559.00;1744450;82;21205;-88
2022/02/01 16:25:39;;;;;;;38.78;20.10;;;;;;;0.77;97.43;99564.72;1744716;81;21351;-88
2022/02/01 16:28:44;;;;;;;33.28;17.67;;;;;;;0.81;97.31;99566.17;1754109;81;21272;-88
2022/02/01 16:31:50;;;;;;;33.42;18.17;;;;;;;0.84;96.95;99561.00;1752972;82;21342;-86
2022/02/01 16:34:56;;;;;;;38.85;19.73;;;;;;;0.82;96.57;99562.98;1753529;81;21745;-88
2022/02/01 16:38:01;;;;;;;39.40;19.62;;;;;;;0.84;96.49;99563.19;1753956;81;21832;-88
2022/02/01 16:41:08;;;;;;;33.83;16.75;;;;;;;0.86;96.78;99565.77;1757953;81;21302;-86
2022/02/01 16:44:13;;;;;;;35.40;17.17;;;;;;;0.90;97.07;99557.30;1775559;81;21721;-88
2022/02/01 16:47:19;;;;;;;34.67;19.45;;;;;;;0.93;97.22;99564.23;1775241;81;21844;-76
2022/02/01 16:50:27;;;;;;;29.80;18.02;;;;;;;0.97;97.25;99569.23;1775708;81;21298;-76
2022/02/01 16:53:37;;;;;;;33.67;18.20;;;;;;;1.01;96.96;99565.28;1775915;81;21283;-76
2022/02/01 16:56:52;;;;;;;22.65;16.00;;;;;;;1.06;96.67;99568.92;1774772;81;21741;-76
2022/02/01 16:59:56;;;;;;;26.95;16.52;;;;;;;1.11;96.49;99568.52;1776140;81;21156;-75